createdAt,value
2018-09-06T00:01:41.699Z,6.43
2018-09-06T00:04:11.776Z,7.50
2018-09-06T00:06:44.836Z,8.83
2018-09-06T00:09:15.028Z,8.50
2018-09-06T00:11:45.228Z,8.80
2018-09-06T00:14:15.339Z,6.47
2018-09-06T00:16:45.540Z,10.17
2018-09-06T00:19:15.590Z,8.20
2018-09-06T00:21:45.701Z,7.30
2018-09-06T00:24:15.797Z,8.13
2018-09-06T00:26:45.985Z,8.13
2018-09-06T00:29:16.024Z,10.50
2018-09-06T00:31:46.095Z,10.67
2018-09-06T00:34:16.217Z,12.47
2018-09-06T00:36:46.344Z,10.57
2018-09-06T00:39:16.418Z,7.40
2018-09-06T00:41:46.538Z,9.10
2018-09-06T00:44:16.716Z,8.77
2018-09-06T00:46:46.869Z,9.03
2018-09-06T00:49:17.018Z,8.03
2018-09-06T00:51:47.195Z,8.73
2018-09-06T00:54:17.298Z,9.20
2018-09-06T00:56:47.572Z,7.57
2018-09-06T00:59:21.730Z,11.27
2018-09-06T01:01:51.839Z,10.23
2018-09-06T01:04:22.008Z,8.70
2018-09-06T01:06:52.206Z,10.67
2018-09-06T01:09:22.442Z,8.97
2018-09-06T01:11:52.561Z,8.50
2018-09-06T01:14:22.731Z,8.03
2018-09-06T01:16:53.092Z,7.03
2018-09-06T01:19:23.272Z,12.83
2018-09-06T01:21:53.352Z,8.80
2018-09-06T01:24:23.429Z,12.07
2018-09-06T01:26:53.563Z,8.00
2018-09-06T01:29:23.815Z,8.30
2018-09-06T01:31:53.976Z,10.53
2018-09-06T01:34:24.017Z,8.00
2018-09-06T01:36:54.194Z,8.00
2018-09-06T01:39:24.247Z,9.03
2018-09-06T01:41:54.358Z,13.27
2018-09-06T01:44:24.410Z,7.57
2018-09-06T01:46:54.483Z,9.37
2018-09-06T01:49:24.550Z,7.40
2018-09-06T01:51:54.652Z,7.10
2018-09-06T01:54:24.743Z,9.67
2018-09-06T01:56:54.846Z,10.27
2018-09-06T01:59:25.038Z,11.13
2018-09-06T02:01:55.167Z,9.83
2018-09-06T02:04:25.236Z,9.03
2018-09-06T02:06:55.365Z,10.13
2018-09-06T02:09:25.466Z,10.67
2018-09-06T02:11:55.522Z,10.60
2018-09-06T02:14:25.592Z,8.97
2018-09-06T02:16:55.789Z,9.37
2018-09-06T02:19:25.829Z,9.30
2018-09-06T02:21:56.032Z,7.43
2018-09-06T02:24:26.094Z,7.30
2018-09-06T02:26:56.149Z,10.63
2018-09-06T02:29:26.240Z,9.17
2018-09-06T02:31:56.395Z,10.40
2018-09-06T02:34:26.409Z,15.90
2018-09-06T02:36:56.560Z,10.47
2018-09-06T02:39:26.647Z,10.60
2018-09-06T02:41:56.762Z,23.23
2018-09-06T02:44:26.911Z,13.10
2018-09-06T02:46:57.009Z,12.83
2018-09-06T02:49:32.081Z,11.00
2018-09-06T02:52:02.184Z,11.00
2018-09-06T02:54:32.247Z,12.60
2018-09-06T02:57:02.333Z,12.17
2018-09-06T02:59:32.348Z,13.30
2018-09-06T03:02:02.377Z,10.97
2018-09-06T03:04:32.520Z,12.23
2018-09-06T03:07:02.706Z,13.60
2018-09-06T03:09:32.829Z,13.33
2018-09-06T03:12:04.299Z,12.43
2018-09-06T03:14:34.433Z,12.17
2018-09-06T03:17:04.680Z,16.33
2018-09-06T03:19:34.784Z,15.43
2018-09-06T03:22:04.896Z,14.27
2018-09-06T03:24:34.982Z,15.90
2018-09-06T03:27:05.036Z,14.67
2018-09-06T03:29:35.247Z,17.43
2018-09-06T03:32:05.729Z,18.40
2018-09-06T03:34:35.792Z,19.63
2018-09-06T03:37:05.985Z,20.30
2018-09-06T03:39:36.090Z,15.83
2018-09-06T03:42:06.217Z,14.77
2018-09-06T03:44:36.287Z,18.10
2018-09-06T03:47:06.439Z,15.90
2018-09-06T03:49:36.569Z,20.63
2018-09-06T03:52:06.902Z,20.80
2018-09-06T03:54:36.951Z,19.80
2018-09-06T03:57:07.869Z,18.80
2018-09-06T03:59:37.966Z,22.43
2018-09-06T04:02:08.101Z,19.53
2018-09-06T04:04:38.245Z,20.70
2018-09-06T04:07:08.902Z,18.87
2018-09-06T04:09:39.219Z,20.50
2018-09-06T04:12:09.375Z,28.10
2018-09-06T04:14:39.393Z,23.90
2018-09-06T04:17:09.455Z,23.30
2018-09-06T04:19:39.541Z,24.30
2018-09-06T04:22:09.684Z,27.00
2018-09-06T04:24:39.796Z,22.60
2018-09-06T04:27:09.889Z,27.37
2018-09-06T04:29:40.024Z,27.87
2018-09-06T04:32:10.147Z,25.03
2018-09-06T04:34:40.277Z,25.57
2018-09-06T04:37:10.390Z,28.37
2018-09-06T04:39:40.481Z,27.40
2018-09-06T04:42:10.655Z,29.80
2018-09-06T04:44:40.742Z,33.03
2018-09-06T04:47:10.896Z,34.20
2018-09-06T04:49:41.020Z,33.67
2018-09-06T04:52:11.151Z,37.93
2018-09-06T04:54:41.237Z,39.00
2018-09-06T04:57:11.353Z,35.60
2018-09-06T04:59:41.411Z,40.77
2018-09-06T05:02:11.518Z,42.57
2018-09-06T05:04:41.649Z,39.27
2018-09-06T05:07:11.808Z,43.03
2018-09-06T05:09:41.866Z,50.10
2018-09-06T05:12:11.923Z,52.70
2018-09-06T05:14:41.998Z,61.33
2018-09-06T05:17:12.036Z,58.33
2018-09-06T05:19:42.068Z,52.40
2018-09-06T05:22:12.193Z,65.23
2018-09-06T05:24:42.341Z,61.70
2018-09-06T05:27:12.434Z,61.20
2018-09-06T05:29:42.559Z,58.80
2018-09-06T05:32:12.712Z,55.43
2018-09-06T05:34:42.787Z,55.10
2018-09-06T05:37:12.944Z,63.83
2018-09-06T05:39:43.026Z,64.80
2018-09-06T05:42:13.156Z,63.77
2018-09-06T05:44:43.234Z,58.87
2018-09-06T05:47:13.297Z,71.53
2018-09-06T05:49:43.370Z,55.07
2018-09-06T05:52:13.535Z,76.13
2018-09-06T05:54:43.642Z,62.93
2018-09-06T05:57:13.770Z,68.77
2018-09-06T05:59:43.917Z,59.70
2018-09-06T06:02:14.014Z,80.40
2018-09-06T06:04:44.048Z,94.60
2018-09-06T06:07:14.143Z,79.97
2018-09-06T06:09:44.238Z,70.27
2018-09-06T06:12:14.360Z,72.97
2018-09-06T06:14:44.481Z,70.43
2018-09-06T06:17:14.588Z,63.93
2018-09-06T06:19:44.679Z,64.30
2018-09-06T06:22:14.829Z,74.30
2018-09-06T06:24:44.962Z,64.27
2018-09-06T06:27:15.023Z,78.50
2018-09-06T06:29:45.272Z,63.67
2018-09-06T06:32:15.498Z,64.97
2018-09-06T06:34:45.616Z,64.23
2018-09-06T06:37:15.747Z,70.07
2018-09-06T06:39:45.856Z,56.53
2018-09-06T06:42:16.010Z,53.80
2018-09-06T06:44:46.040Z,57.07
2018-09-06T06:47:16.105Z,61.17
2018-09-06T06:49:46.204Z,54.50
2018-09-06T06:52:16.280Z,48.80
2018-09-06T06:54:46.359Z,50.10
2018-09-06T06:57:16.500Z,52.80
2018-09-06T06:59:46.552Z,49.80
2018-09-06T07:02:16.673Z,49.73
2018-09-06T07:04:46.713Z,41.07
2018-09-06T07:07:16.979Z,43.87
2018-09-06T07:09:46.895Z,45.80
2018-09-06T07:12:16.995Z,37.93
2018-09-06T07:14:47.084Z,39.47
2018-09-06T07:17:17.204Z,42.43
2018-09-06T07:19:47.281Z,37.10
2018-09-06T07:22:17.427Z,38.33
2018-09-06T07:24:47.526Z,45.43
2018-09-06T07:27:17.743Z,39.23
2018-09-06T07:29:47.806Z,39.90
2018-09-06T07:32:17.966Z,42.00
2018-09-06T07:34:48.057Z,36.30
2018-09-06T07:37:18.195Z,34.77
2018-09-06T07:39:48.332Z,38.30
2018-09-06T07:42:18.550Z,36.90
2018-09-06T07:44:48.602Z,40.20
2018-09-06T07:47:18.773Z,37.57
2018-09-06T07:49:49.033Z,40.17
2018-09-06T07:52:19.134Z,38.30
2018-09-06T07:54:49.220Z,37.53
2018-09-06T07:57:19.426Z,39.03
2018-09-06T07:59:49.518Z,39.67
2018-09-06T08:02:19.671Z,43.13
2018-09-06T08:04:49.784Z,41.27
2018-09-06T08:07:19.861Z,38.80
2018-09-06T08:09:49.943Z,43.30
2018-09-06T08:12:20.059Z,41.40
2018-09-06T08:14:50.179Z,40.93
2018-09-06T08:17:20.251Z,43.00
2018-09-06T08:19:50.430Z,42.33
2018-09-06T08:22:20.557Z,50.27
2018-09-06T08:24:50.711Z,49.53
2018-09-06T08:27:20.882Z,45.87
2018-09-06T08:29:51.084Z,52.43
2018-09-06T08:32:23.009Z,60.07
2018-09-06T08:34:53.087Z,55.97
2018-09-06T08:37:23.323Z,58.67
2018-09-06T08:39:53.371Z,73.03
2018-09-06T08:42:23.478Z,59.93
2018-09-06T08:44:53.529Z,68.23
2018-09-06T08:47:23.691Z,61.53
2018-09-06T08:49:53.710Z,60.67
2018-09-06T08:52:23.850Z,56.57
2018-09-06T08:54:54.015Z,50.13
2018-09-06T08:57:24.154Z,45.80
2018-09-06T08:59:54.235Z,49.47
2018-09-06T09:02:24.327Z,45.90
2018-09-06T09:04:54.433Z,46.80
2018-09-06T09:07:24.584Z,50.07
2018-09-06T09:09:54.699Z,52.93
2018-09-06T09:12:24.895Z,51.87
2018-09-06T09:14:55.045Z,43.50
2018-09-06T09:17:25.155Z,44.00
2018-09-06T09:19:55.250Z,49.80
2018-09-06T09:22:25.488Z,48.63
2018-09-06T09:24:55.578Z,41.93
2018-09-06T09:27:25.667Z,44.33
2018-09-06T09:29:55.802Z,45.87
2018-09-06T09:32:26.036Z,41.47
2018-09-06T09:34:56.336Z,47.30
2018-09-06T09:37:26.550Z,36.17
2018-09-06T09:39:56.726Z,41.03
2018-09-06T09:42:26.942Z,36.47
2018-09-06T09:44:57.071Z,36.43
2018-09-06T09:49:56.303Z,35.40
2018-09-06T09:52:26.477Z,32.67
2018-09-06T09:54:56.631Z,34.30
2018-09-06T09:57:26.742Z,41.87
2018-09-06T09:59:56.877Z,32.80
2018-09-06T10:02:31.923Z,33.70
2018-09-06T10:05:07.466Z,33.40
2018-09-06T10:07:42.631Z,33.67
2018-09-06T10:10:12.711Z,30.77
2018-09-06T10:12:42.914Z,27.90
2018-09-06T10:15:13.067Z,29.97
2018-09-06T10:17:43.139Z,33.10
2018-09-06T10:20:13.295Z,27.63
2018-09-06T10:22:43.593Z,31.90
2018-09-06T10:25:13.662Z,29.00
2018-09-06T10:27:44.086Z,35.77
2018-09-06T10:30:14.255Z,33.57
2018-09-06T10:32:44.400Z,37.03
2018-09-06T10:35:14.571Z,31.30
2018-09-06T10:37:44.743Z,36.80
2018-09-06T10:40:14.783Z,37.73
2018-09-06T10:42:44.960Z,38.20
2018-09-06T10:45:15.068Z,34.07
2018-09-06T10:47:45.328Z,41.93
2018-09-06T10:50:15.482Z,39.13
2018-09-06T10:52:45.646Z,40.17
2018-09-06T10:55:15.824Z,35.60
2018-09-06T10:57:46.084Z,40.37
2018-09-06T11:00:16.237Z,43.00
2018-09-06T11:02:46.872Z,43.50
2018-09-06T11:05:17.071Z,40.67
2018-09-06T11:07:47.202Z,39.67
2018-09-06T11:10:19.361Z,39.70
2018-09-06T11:12:56.458Z,41.13
2018-09-06T11:15:30.887Z,40.20
2018-09-06T11:18:01.051Z,42.50
2018-09-06T11:20:31.150Z,45.57
2018-09-06T11:23:01.331Z,45.27
2018-09-06T11:25:31.494Z,42.43
2018-09-06T11:28:01.657Z,46.60
2018-09-06T11:30:31.745Z,38.50
2018-09-06T11:33:02.949Z,43.37
2018-09-06T11:35:33.503Z,38.10
2018-09-06T11:38:03.662Z,40.20
2018-09-06T11:40:33.847Z,38.07
2018-09-06T11:43:03.985Z,45.13
2018-09-06T11:45:34.086Z,33.63
2018-09-06T11:48:04.356Z,28.80
2018-09-06T11:50:34.560Z,30.10
2018-09-06T11:53:04.725Z,28.60
2018-09-06T11:55:34.849Z,27.27
2018-09-06T11:58:05.212Z,31.60
2018-09-06T12:00:37.789Z,34.83
2018-09-06T12:03:08.381Z,27.60
2018-09-06T12:05:38.620Z,31.80
2018-09-06T12:08:08.739Z,36.80
2018-09-06T12:10:38.904Z,35.03
2018-09-06T12:13:09.103Z,30.50
2018-09-06T12:15:39.330Z,32.97
2018-09-06T12:18:09.596Z,37.93
2018-09-06T12:20:39.727Z,33.87
2018-09-06T12:23:09.913Z,28.80
2018-09-06T12:25:40.032Z,34.17
2018-09-06T12:28:10.334Z,34.87
2018-09-06T12:30:40.649Z,26.60
2018-09-06T12:33:10.918Z,36.67
2018-09-06T12:35:41.028Z,39.87
2018-09-06T12:38:11.245Z,33.87
2018-09-06T12:40:41.383Z,40.13
2018-09-06T12:43:11.778Z,43.50
2018-09-06T12:45:42.178Z,37.77
2018-09-06T12:48:12.285Z,47.67
2018-09-06T12:50:42.445Z,45.47
2018-09-06T12:53:12.611Z,45.80
2018-09-06T12:55:42.780Z,41.93
2018-09-06T12:58:12.933Z,41.43
2018-09-06T13:00:43.064Z,45.60
2018-09-06T13:03:13.289Z,45.43
2018-09-06T13:05:43.368Z,46.50
2018-09-06T13:08:13.557Z,44.23
2018-09-06T13:10:43.632Z,47.50
2018-09-06T13:13:13.843Z,44.30
2018-09-06T13:15:43.972Z,44.30
2018-09-06T13:18:14.164Z,53.33
2018-09-06T13:20:44.345Z,44.37
2018-09-06T13:23:14.466Z,44.30
2018-09-06T13:25:44.652Z,52.43
2018-09-06T13:28:14.839Z,49.10
2018-09-06T13:30:44.861Z,49.50
2018-09-06T13:33:15.005Z,50.17
2018-09-06T13:35:45.188Z,47.43
2018-09-06T13:38:15.276Z,59.87
2018-09-06T13:40:45.396Z,51.27
2018-09-06T13:43:15.478Z,60.47
2018-09-06T13:45:45.560Z,61.27
2018-09-06T13:48:15.975Z,65.50
2018-09-06T13:50:46.035Z,57.87
2018-09-06T13:53:16.165Z,53.70
2018-09-06T13:55:46.271Z,61.40
2018-09-06T13:58:16.478Z,59.83
2018-09-06T14:00:46.622Z,58.77
2018-09-06T14:03:16.769Z,53.70
2018-09-06T14:05:46.944Z,51.57
2018-09-06T14:08:17.052Z,54.00
2018-09-06T14:10:47.139Z,56.67
2018-09-06T14:13:17.308Z,56.77
2018-09-06T14:15:47.379Z,53.40
2018-09-06T14:18:17.524Z,56.47
2018-09-06T14:20:47.819Z,50.57
2018-09-06T14:23:17.904Z,53.60
2018-09-06T14:25:48.007Z,51.93
2018-09-06T14:28:18.183Z,61.50
2018-09-06T14:30:48.272Z,53.50
2018-09-06T14:33:18.340Z,58.57
2018-09-06T14:35:48.435Z,58.10
2018-09-06T14:38:18.622Z,58.83
2018-09-06T14:40:48.758Z,53.30
2018-09-06T14:43:18.876Z,56.07
2018-09-06T14:45:49.015Z,55.13
2018-09-06T14:48:19.162Z,59.03
2018-09-06T14:50:49.362Z,53.23
2018-09-06T14:53:19.451Z,65.57
2018-09-06T14:55:49.545Z,59.37
2018-09-06T14:58:19.665Z,67.00
2018-09-06T15:00:49.835Z,63.30
2018-09-06T15:03:20.004Z,66.33
2018-09-06T15:05:50.067Z,64.83
2018-09-06T15:08:20.218Z,61.43
2018-09-06T15:10:50.285Z,57.70
2018-09-06T15:13:20.404Z,60.97
2018-09-06T15:15:50.583Z,59.33
2018-09-06T15:18:20.738Z,58.43
2018-09-06T15:20:50.822Z,64.37
2018-09-06T15:23:20.943Z,57.83
2018-09-06T15:25:51.126Z,67.83
2018-09-06T15:28:21.241Z,74.60
2018-09-06T15:30:51.339Z,71.70
2018-09-06T15:33:21.515Z,62.93
2018-09-06T15:35:51.651Z,67.50
2018-09-06T15:38:21.854Z,60.60
2018-09-06T15:40:51.938Z,64.40
2018-09-06T15:43:22.096Z,61.43
2018-09-06T15:45:52.455Z,61.17
2018-09-06T15:48:22.598Z,60.80
2018-09-06T15:50:52.748Z,65.10
2018-09-06T15:53:22.899Z,59.60
2018-09-06T15:55:53.069Z,59.13
2018-09-06T15:58:23.238Z,68.73
2018-09-06T16:00:53.340Z,68.17
2018-09-06T16:03:23.480Z,77.97
2018-09-06T16:05:53.543Z,79.23
2018-09-06T16:08:24.134Z,59.10
2018-09-06T16:10:54.299Z,53.07
2018-09-06T16:13:25.242Z,49.40
2018-09-06T16:15:55.609Z,48.37
2018-09-06T16:18:25.906Z,51.27
2018-09-06T16:20:56.195Z,50.47
2018-09-06T16:23:26.424Z,54.17
2018-09-06T16:25:56.588Z,56.03
2018-09-06T16:28:26.794Z,54.57
2018-09-06T16:30:58.857Z,54.93
2018-09-06T16:33:29.110Z,67.40
2018-09-06T16:35:59.187Z,54.37
2018-09-06T16:38:29.326Z,52.47
2018-09-06T16:40:59.473Z,51.33
2018-09-06T16:43:29.811Z,43.10
2018-09-06T16:45:59.898Z,50.93
2018-09-06T16:48:30.042Z,56.33
2018-09-06T16:51:00.986Z,55.43
2018-09-06T16:53:31.152Z,58.30
2018-09-06T16:56:01.323Z,57.17
2018-09-06T16:58:32.591Z,60.27
2018-09-06T17:01:02.775Z,56.73
2018-09-06T17:03:32.993Z,54.37
2018-09-06T17:06:03.122Z,60.40
2018-09-06T17:08:33.241Z,66.73
2018-09-06T17:11:03.364Z,60.27
2018-09-06T17:13:33.550Z,70.43
2018-09-06T17:16:03.717Z,60.73
2018-09-06T17:18:34.813Z,65.90
2018-09-06T17:21:04.975Z,69.43
2018-09-06T17:23:35.212Z,58.13
2018-09-06T17:26:05.346Z,68.33
2018-09-06T17:28:35.800Z,68.23
2018-09-06T17:31:06.580Z,66.00
2018-09-06T17:33:36.821Z,73.53
2018-09-06T17:36:07.069Z,79.90
2018-09-06T17:38:38.069Z,80.03
2018-09-06T17:41:08.162Z,78.63
2018-09-06T17:43:38.867Z,93.97
2018-09-06T17:46:08.979Z,108.97
2018-09-06T17:48:39.501Z,90.80
2018-09-06T17:51:09.637Z,85.63
2018-09-06T17:53:39.792Z,85.27
2018-09-06T17:56:09.977Z,91.63
2018-09-06T17:58:40.118Z,88.90
2018-09-06T18:01:26.571Z,93.77
2018-09-06T18:03:56.656Z,95.13
2018-09-06T18:06:26.871Z,97.83
2018-09-06T18:08:57.120Z,87.57
2018-09-06T18:11:27.668Z,77.33
2018-09-06T18:13:58.235Z,77.93
2018-09-06T18:16:28.793Z,55.90
2018-09-06T18:18:58.961Z,56.27
2018-09-06T18:21:29.224Z,42.63
2018-09-06T18:23:59.451Z,39.00
2018-09-06T18:26:29.721Z,40.07
2018-09-06T18:29:00.251Z,38.53
2018-09-06T18:31:30.485Z,33.20
2018-09-06T18:34:00.735Z,31.50
2018-09-06T18:36:30.958Z,30.00
2018-09-06T18:39:01.518Z,28.13
2018-09-06T18:41:31.689Z,32.10
2018-09-06T18:44:01.944Z,34.20
2018-09-06T18:46:32.069Z,22.40
2018-09-06T18:49:02.242Z,20.63
2018-09-06T18:51:32.380Z,14.87
2018-09-06T18:54:02.536Z,14.30
2018-09-06T18:56:32.778Z,14.70
2018-09-06T18:59:03.036Z,14.10
2018-09-06T19:01:33.212Z,13.60
2018-09-06T19:04:03.468Z,14.40
2018-09-06T19:06:33.743Z,12.60
2018-09-06T19:09:04.130Z,12.40
2018-09-06T19:11:34.361Z,16.27
2018-09-06T19:14:04.582Z,12.50
2018-09-06T19:16:34.816Z,12.67
2018-09-06T19:19:05.026Z,12.17
2018-09-06T19:21:35.196Z,11.90
2018-09-06T19:24:05.316Z,13.37
2018-09-06T19:26:35.430Z,12.17
2018-09-06T19:29:05.663Z,11.53
2018-09-06T19:31:35.885Z,10.70
2018-09-06T19:34:06.165Z,12.00
2018-09-06T19:36:36.393Z,12.73
2018-09-06T19:39:10.866Z,10.83
2018-09-06T19:41:40.961Z,14.97
2018-09-06T19:44:11.173Z,14.90
2018-09-06T19:46:41.258Z,14.97
2018-09-06T19:49:11.379Z,16.33
2018-09-06T19:51:41.522Z,14.03
2018-09-06T19:54:11.820Z,15.47
2018-09-06T19:56:41.943Z,13.93
2018-09-06T19:59:12.049Z,15.73
2018-09-06T20:01:42.128Z,18.90
2018-09-06T20:04:12.331Z,17.03
2018-09-06T20:06:42.411Z,18.40
2018-09-06T20:09:12.507Z,17.77
2018-09-06T20:11:42.615Z,16.30
2018-09-06T20:14:12.804Z,15.40
2018-09-06T20:16:42.934Z,19.47
2018-09-06T20:19:13.075Z,17.57
2018-09-06T20:21:43.184Z,16.60
2018-09-06T20:24:13.390Z,16.00
2018-09-06T20:26:43.505Z,13.90
2018-09-06T20:29:13.679Z,17.97
2018-09-06T20:31:43.842Z,18.17
2018-09-06T20:34:13.977Z,18.40
2018-09-06T20:36:44.080Z,18.37
2018-09-06T20:39:14.265Z,22.10
2018-09-06T20:41:44.398Z,23.17
2018-09-06T20:44:14.531Z,24.07
2018-09-06T20:46:44.613Z,24.43
2018-09-06T20:49:14.842Z,24.77
2018-09-06T20:51:44.878Z,29.40
2018-09-06T20:54:15.086Z,22.43
2018-09-06T20:56:45.160Z,22.10
2018-09-06T20:59:15.343Z,28.43
2018-09-06T21:01:45.455Z,28.47
2018-09-06T21:04:15.676Z,22.30
2018-09-06T21:06:45.921Z,27.93
2018-09-06T21:09:16.114Z,27.97
2018-09-06T21:11:46.433Z,24.43
2018-09-06T21:14:16.677Z,25.47
2018-09-06T21:16:47.207Z,26.57
2018-09-06T21:19:18.050Z,33.03
2018-09-06T21:21:48.368Z,31.87
2018-09-06T21:24:18.644Z,49.50
2018-09-06T21:26:49.043Z,38.13
2018-09-06T21:29:19.328Z,39.53
2018-09-06T21:31:49.551Z,46.40
2018-09-06T21:34:19.701Z,47.60
2018-09-06T21:36:56.189Z,42.67
2018-09-06T21:39:26.437Z,44.27
2018-09-06T21:41:56.643Z,38.90
2018-09-06T21:44:26.910Z,47.83
2018-09-06T21:46:57.256Z,42.37
2018-09-06T21:49:27.435Z,41.63
2018-09-06T21:51:57.543Z,39.10
2018-09-06T21:54:27.841Z,39.90
2018-09-06T21:56:57.922Z,42.10
2018-09-06T21:59:28.087Z,38.37
2018-09-06T22:02:03.375Z,42.07
2018-09-06T22:04:33.538Z,42.30
2018-09-06T22:07:03.662Z,42.07
2018-09-06T22:09:34.053Z,43.97
2018-09-06T22:12:11.206Z,46.63
2018-09-06T22:14:43.412Z,45.20
2018-09-06T22:17:21.197Z,42.23
2018-09-06T22:19:51.547Z,44.97
2018-09-06T22:22:21.707Z,39.50
2018-09-06T22:24:51.829Z,44.77
2018-09-06T22:27:22.717Z,51.00
2018-09-06T22:29:52.836Z,46.20
2018-09-06T22:32:22.944Z,56.37
2018-09-06T22:34:53.062Z,48.07
2018-09-06T22:37:23.215Z,46.07
2018-09-06T22:39:53.351Z,55.20
2018-09-06T22:42:23.460Z,51.97
2018-09-06T22:44:53.568Z,50.40
2018-09-06T22:47:23.714Z,45.47
2018-09-06T22:49:53.837Z,46.63
2018-09-06T22:52:24.092Z,58.50
2018-09-06T22:54:54.225Z,46.70
2018-09-06T22:57:24.325Z,53.33
2018-09-06T22:59:54.408Z,52.73
2018-09-06T23:02:28.262Z,44.87
2018-09-06T23:04:58.401Z,52.00
2018-09-06T23:07:28.718Z,43.13
2018-09-06T23:09:58.821Z,52.10
2018-09-06T23:12:28.921Z,60.33
2018-09-06T23:14:59.128Z,42.03
2018-09-06T23:17:29.783Z,57.30
2018-09-06T23:19:59.952Z,53.33
2018-09-06T23:22:30.163Z,57.23
2018-09-06T23:25:00.277Z,60.93
2018-09-06T23:27:30.468Z,54.07
2018-09-06T23:30:00.520Z,56.23
2018-09-06T23:32:30.630Z,56.60
2018-09-06T23:35:00.810Z,51.40
2018-09-06T23:37:31.496Z,51.50
2018-09-06T23:40:01.819Z,52.67
2018-09-06T23:42:32.020Z,43.83
2018-09-06T23:45:02.178Z,54.47
2018-09-06T23:47:32.409Z,57.57
2018-09-06T23:50:02.827Z,52.37
2018-09-06T23:52:32.909Z,61.90
2018-09-06T23:55:04.515Z,57.10
2018-09-06T23:57:34.680Z,62.50
